sensor_id;sensor_type;location;lat;lon;timestamp;pressure;altitude;pressure_sealevel;temperature;humidity
77153;BME280;66124;51.146;17.072;2023-05-21T00:01:51;100673.16;;;15.14;77.11
77153;BME280;66124;51.146;17.072;2023-05-21T00:04:20;100673.14;;;15.13;77.08
77153;BME280;66124;51.146;17.072;2023-05-21T00:06:50;100674.27;;;15.12;77.28
77153;BME280;66124;51.146;17.072;2023-05-21T00:09:19;100674.25;;;15.10;77.09
77153;BME280;66124;51.146;17.072;2023-05-21T00:11:48;100674.70;;;15.10;76.93
77153;BME280;66124;51.146;17.072;2023-05-21T00:14:18;100672.11;;;15.08;77.07
77153;BME280;66124;51.146;17.072;2023-05-21T00:16:47;100670.36;;;15.06;77.05
77153;BME280;66124;51.146;17.072;2023-05-21T00:19:15;100672.34;;;15.05;76.96
77153;BME280;66124;51.146;17.072;2023-05-21T00:26:39;100668.16;;;15.00;76.98
77153;BME280;66124;51.146;17.072;2023-05-21T00:29:08;100666.17;;;14.96;76.93
77153;BME280;66124;51.146;17.072;2023-05-21T00:31:37;100666.21;;;14.93;76.98
77153;BME280;66124;51.146;17.072;2023-05-21T00:34:07;100664.20;;;14.91;76.77
77153;BME280;66124;51.146;17.072;2023-05-21T00:36:36;100664.05;;;14.89;76.81
77153;BME280;66124;51.146;17.072;2023-05-21T00:39:07;100667.04;;;14.87;76.81
77153;BME280;66124;51.146;17.072;2023-05-21T00:41:36;100668.16;;;14.84;76.74
77153;BME280;66124;51.146;17.072;2023-05-21T00:44:06;100667.81;;;14.81;76.71
77153;BME280;66124;51.146;17.072;2023-05-21T00:46:35;100670.70;;;14.79;76.71
77153;BME280;66124;51.146;17.072;2023-05-21T00:49:05;100668.20;;;14.77;76.60
77153;BME280;66124;51.146;17.072;2023-05-21T00:51:34;100666.88;;;14.75;76.64
77153;BME280;66124;51.146;17.072;2023-05-21T00:54:04;100666.73;;;14.73;76.71
77153;BME280;66124;51.146;17.072;2023-05-21T00:56:33;100664.16;;;14.72;76.69
77153;BME280;66124;51.146;17.072;2023-05-21T00:59:04;100667.19;;;14.71;76.55
77153;BME280;66124;51.146;17.072;2023-05-21T01:01:33;100666.31;;;14.69;76.69
77153;BME280;66124;51.146;17.072;2023-05-21T01:04:03;100665.98;;;14.67;76.65
77153;BME280;66124;51.146;17.072;2023-05-21T01:06:33;100664.05;;;14.66;76.57
77153;BME280;66124;51.146;17.072;2023-05-21T01:09:03;100660.77;;;14.65;76.65
77153;BME280;66124;51.146;17.072;2023-05-21T01:11:38;100660.02;;;14.63;76.65
77153;BME280;66124;51.146;17.072;2023-05-21T01:14:11;100660.55;;;14.60;76.54
77153;BME280;66124;51.146;17.072;2023-05-21T01:16:43;100656.98;;;14.58;76.47
77153;BME280;66124;51.146;17.072;2023-05-21T01:19:15;100653.20;;;14.55;76.49
77153;BME280;66124;51.146;17.072;2023-05-21T01:21:48;100649.84;;;14.53;76.58
77153;BME280;66124;51.146;17.072;2023-05-21T01:24:18;100651.58;;;14.50;76.60
77153;BME280;66124;51.146;17.072;2023-05-21T01:26:47;100645.55;;;14.47;76.60
77153;BME280;66124;51.146;17.072;2023-05-21T01:29:17;100652.68;;;14.46;76.48
77153;BME280;66124;51.146;17.072;2023-05-21T01:31:58;100650.14;;;14.43;76.57
77153;BME280;66124;51.146;17.072;2023-05-21T01:34:36;100644.23;;;14.40;76.74
77153;BME280;66124;51.146;17.072;2023-05-21T01:37:15;100645.12;;;14.37;76.86
77153;BME280;66124;51.146;17.072;2023-05-21T01:39:46;100641.71;;;14.35;76.84
77153;BME280;66124;51.146;17.072;2023-05-21T01:47:26;100637.99;;;14.31;76.99
77153;BME280;66124;51.146;17.072;2023-05-21T01:49:58;100632.95;;;14.26;77.12
77153;BME280;66124;51.146;17.072;2023-05-21T01:52:28;100633.52;;;14.23;77.21
77153;BME280;66124;51.146;17.072;2023-05-21T01:54:58;100638.59;;;14.20;77.20
77153;BME280;66124;51.146;17.072;2023-05-21T01:57:27;100636.14;;;14.19;77.28
77153;BME280;66124;51.146;17.072;2023-05-21T01:59:57;100633.66;;;14.17;77.15
77153;BME280;66124;51.146;17.072;2023-05-21T02:02:27;100635.13;;;14.16;77.24
77153;BME280;66124;51.146;17.072;2023-05-21T02:04:56;100632.27;;;14.14;77.29
77153;BME280;66124;51.146;17.072;2023-05-21T02:07:26;100630.89;;;14.13;77.30
77153;BME280;66124;51.146;17.072;2023-05-21T02:09:56;100630.77;;;14.11;77.25
77153;BME280;66124;51.146;17.072;2023-05-21T02:12:25;100631.83;;;14.10;77.30
77153;BME280;66124;51.146;17.072;2023-05-21T02:14:55;100631.77;;;14.07;77.10
77153;BME280;66124;51.146;17.072;2023-05-21T02:17:24;100629.24;;;14.05;77.16
77153;BME280;66124;51.146;17.072;2023-05-21T02:19:54;100631.55;;;14.02;77.20
77153;BME280;66124;51.146;17.072;2023-05-21T02:22:23;100634.05;;;13.99;77.14
77153;BME280;66124;51.146;17.072;2023-05-21T02:24:52;100631.29;;;13.95;77.13
77153;BME280;66124;51.146;17.072;2023-05-21T02:27:22;100633.05;;;13.93;77.20
77153;BME280;66124;51.146;17.072;2023-05-21T02:29:51;100631.19;;;13.89;77.19
77153;BME280;66124;51.146;17.072;2023-05-21T02:32:21;100630.46;;;13.85;77.15
77153;BME280;66124;51.146;17.072;2023-05-21T02:34:50;100629.57;;;13.81;77.23
77153;BME280;66124;51.146;17.072;2023-05-21T02:37:20;100629.95;;;13.77;77.35
77153;BME280;66124;51.146;17.072;2023-05-21T02:39:50;100633.55;;;13.74;77.36
77153;BME280;66124;51.146;17.072;2023-05-21T02:42:20;100629.80;;;13.70;77.35
77153;BME280;66124;51.146;17.072;2023-05-21T02:44:49;100628.35;;;13.66;77.37
77153;BME280;66124;51.146;17.072;2023-05-21T02:47:19;100620.50;;;13.62;77.52
77153;BME280;66124;51.146;17.072;2023-05-21T02:49:50;100626.67;;;13.59;77.23
77153;BME280;66124;51.146;17.072;2023-05-21T02:52:20;100627.08;;;13.56;77.32
77153;BME280;66124;51.146;17.072;2023-05-21T02:54:50;100624.73;;;13.52;77.32
77153;BME280;66124;51.146;17.072;2023-05-21T02:57:19;100623.30;;;13.48;77.18
77153;BME280;66124;51.146;17.072;2023-05-21T02:59:47;100622.84;;;13.45;77.27
77153;BME280;66124;51.146;17.072;2023-05-21T03:07:14;100619.82;;;13.40;77.50
77153;BME280;66124;51.146;17.072;2023-05-21T03:09:44;100615.67;;;13.37;77.75
77153;BME280;66124;51.146;17.072;2023-05-21T03:12:13;100615.92;;;13.36;77.54
77153;BME280;66124;51.146;17.072;2023-05-21T03:14:43;100614.84;;;13.35;77.69
77153;BME280;66124;51.146;17.072;2023-05-21T03:17:12;100617.11;;;13.34;77.91
77153;BME280;66124;51.146;17.072;2023-05-21T03:19:42;100619.35;;;13.33;77.81
77153;BME280;66124;51.146;17.072;2023-05-21T03:22:12;100618.36;;;13.33;77.87
77153;BME280;66124;51.146;17.072;2023-05-21T03:24:41;100616.69;;;13.32;77.78
77153;BME280;66124;51.146;17.072;2023-05-21T03:27:11;100616.02;;;13.31;78.08
77153;BME280;66124;51.146;17.072;2023-05-21T03:29:40;100616.17;;;13.30;78.12
77153;BME280;66124;51.146;17.072;2023-05-21T03:32:09;100613.80;;;13.29;78.30
77153;BME280;66124;51.146;17.072;2023-05-21T03:34:39;100610.64;;;13.30;78.14
77153;BME280;66124;51.146;17.072;2023-05-21T03:37:08;100611.84;;;13.32;78.14
77153;BME280;66124;51.146;17.072;2023-05-21T03:39:38;100611.23;;;13.36;78.20
77153;BME280;66124;51.146;17.072;2023-05-21T03:42:07;100611.09;;;13.38;78.32
77153;BME280;66124;51.146;17.072;2023-05-21T03:44:37;100611.39;;;13.40;78.16
77153;BME280;66124;51.146;17.072;2023-05-21T03:47:06;100613.20;;;13.43;78.51
77153;BME280;66124;51.146;17.072;2023-05-21T03:49:36;100611.21;;;13.46;78.26
77153;BME280;66124;51.146;17.072;2023-05-21T03:52:05;100612.84;;;13.50;78.42
77153;BME280;66124;51.146;17.072;2023-05-21T03:54:35;100612.10;;;13.54;78.62
77153;BME280;66124;51.146;17.072;2023-05-21T03:57:05;100616.81;;;13.59;78.75
77153;BME280;66124;51.146;17.072;2023-05-21T03:59:34;100617.64;;;13.65;78.75
77153;BME280;66124;51.146;17.072;2023-05-21T04:02:04;100618.71;;;13.70;78.53
77153;BME280;66124;51.146;17.072;2023-05-21T04:04:33;100618.11;;;13.77;78.54
77153;BME280;66124;51.146;17.072;2023-05-21T04:07:03;100618.58;;;13.83;78.70
77153;BME280;66124;51.146;17.072;2023-05-21T04:09:32;100620.68;;;13.90;78.67
77153;BME280;66124;51.146;17.072;2023-05-21T04:12:02;100621.89;;;13.97;78.74
77153;BME280;66124;51.146;17.072;2023-05-21T04:14:31;100617.05;;;14.05;78.57
77153;BME280;66124;51.146;17.072;2023-05-21T04:17:01;100620.05;;;14.12;78.53
77153;BME280;66124;51.146;17.072;2023-05-21T04:19:29;100618.14;;;14.19;78.56
77153;BME280;66124;51.146;17.072;2023-05-21T04:27:07;100624.73;;;14.48;78.23
77153;BME280;66124;51.146;17.072;2023-05-21T04:29:36;100624.19;;;14.57;78.27
77153;BME280;66124;51.146;17.072;2023-05-21T04:32:07;100625.05;;;14.68;78.25
77153;BME280;66124;51.146;17.072;2023-05-21T04:34:36;100625.88;;;14.78;78.09
77153;BME280;66124;51.146;17.072;2023-05-21T04:37:06;100625.29;;;14.88;78.04
77153;BME280;66124;51.146;17.072;2023-05-21T04:39:36;100625.26;;;14.98;77.86
77153;BME280;66124;51.146;17.072;2023-05-21T04:42:06;100626.71;;;15.08;77.66
77153;BME280;66124;51.146;17.072;2023-05-21T04:44:35;100624.25;;;15.16;77.54
77153;BME280;66124;51.146;17.072;2023-05-21T04:47:05;100620.85;;;15.24;77.45
77153;BME280;66124;51.146;17.072;2023-05-21T04:49:34;100616.25;;;15.32;77.26
77153;BME280;66124;51.146;17.072;2023-05-21T04:52:04;100607.40;;;15.38;77.18
77153;BME280;66124;51.146;17.072;2023-05-21T04:54:34;100614.32;;;15.48;77.14
77153;BME280;66124;51.146;17.072;2023-05-21T04:57:04;100615.06;;;15.56;76.99
77153;BME280;66124;51.146;17.072;2023-05-21T04:59:34;100612.70;;;15.65;76.92
77153;BME280;66124;51.146;17.072;2023-05-21T05:02:04;100610.48;;;15.73;76.63
77153;BME280;66124;51.146;17.072;2023-05-21T05:04:33;100613.38;;;15.81;76.55
77153;BME280;66124;51.146;17.072;2023-05-21T05:07:03;100616.91;;;15.90;76.27
77153;BME280;66124;51.146;17.072;2023-05-21T05:09:32;100617.36;;;15.99;76.22
77153;BME280;66124;51.146;17.072;2023-05-21T05:12:02;100618.51;;;16.07;75.78
77153;BME280;66124;51.146;17.072;2023-05-21T05:14:32;100619.04;;;16.14;75.59
77153;BME280;66124;51.146;17.072;2023-05-21T05:17:01;100615.38;;;16.24;75.50
77153;BME280;66124;51.146;17.072;2023-05-21T05:19:32;100619.84;;;16.35;75.26
77153;BME280;66124;51.146;17.072;2023-05-21T05:22:01;100617.81;;;16.46;74.89
77153;BME280;66124;51.146;17.072;2023-05-21T05:24:31;100622.98;;;16.56;74.78
77153;BME280;66124;51.146;17.072;2023-05-21T05:27:00;100617.09;;;16.64;74.46
77153;BME280;66124;51.146;17.072;2023-05-21T05:29:29;100621.81;;;16.76;74.04
77153;BME280;66124;51.146;17.072;2023-05-21T05:31:59;100620.20;;;16.84;73.76
77153;BME280;66124;51.146;17.072;2023-05-21T05:34:28;100618.54;;;16.92;73.40
77153;BME280;66124;51.146;17.072;2023-05-21T05:36:56;100619.15;;;17.01;73.34
77153;BME280;66124;51.146;17.072;2023-05-21T05:39:24;100613.70;;;17.08;72.99
77153;BME280;66124;51.146;17.072;2023-05-21T05:47:20;100613.59;;;17.38;71.88
77153;BME280;66124;51.146;17.072;2023-05-21T05:49:49;100613.55;;;17.44;71.44
77153;BME280;66124;51.146;17.072;2023-05-21T05:52:18;100607.39;;;17.52;71.22
77153;BME280;66124;51.146;17.072;2023-05-21T05:54:48;100605.54;;;17.58;71.02
77153;BME280;66124;51.146;17.072;2023-05-21T05:57:17;100599.29;;;17.66;70.64
77153;BME280;66124;51.146;17.072;2023-05-21T05:59:49;100588.42;;;17.64;70.38
77153;BME280;66124;51.146;17.072;2023-05-21T06:02:18;100598.98;;;17.79;70.31
77153;BME280;66124;51.146;17.072;2023-05-21T06:04:47;100598.55;;;17.88;70.00
77153;BME280;66124;51.146;17.072;2023-05-21T06:07:17;100599.83;;;17.97;69.73
77153;BME280;66124;51.146;17.072;2023-05-21T06:09:46;100596.05;;;18.07;69.44
77153;BME280;66124;51.146;17.072;2023-05-21T06:12:16;100600.39;;;18.14;69.02
77153;BME280;66124;51.146;17.072;2023-05-21T06:14:45;100595.67;;;18.17;68.42
77153;BME280;66124;51.146;17.072;2023-05-21T06:17:15;100594.66;;;18.22;68.43
77153;BME280;66124;51.146;17.072;2023-05-21T06:19:45;100594.14;;;18.26;68.10
77153;BME280;66124;51.146;17.072;2023-05-21T06:22:14;100596.54;;;18.33;67.83
77153;BME280;66124;51.146;17.072;2023-05-21T06:24:44;100594.63;;;18.40;67.20
77153;BME280;66124;51.146;17.072;2023-05-21T06:27:13;100593.33;;;18.48;67.16
77153;BME280;66124;51.146;17.072;2023-05-21T06:29:43;100596.13;;;18.60;67.06
77153;BME280;66124;51.146;17.072;2023-05-21T06:32:12;100594.98;;;18.74;66.73
77153;BME280;66124;51.146;17.072;2023-05-21T06:34:41;100581.10;;;18.76;66.44
77153;BME280;66124;51.146;17.072;2023-05-21T06:37:11;100594.29;;;18.95;66.18
77153;BME280;66124;51.146;17.072;2023-05-21T06:39:40;100593.75;;;19.04;66.01
77153;BME280;66124;51.146;17.072;2023-05-21T06:42:09;100591.51;;;19.16;65.47
77153;BME280;66124;51.146;17.072;2023-05-21T06:44:39;100588.93;;;19.22;64.80
77153;BME280;66124;51.146;17.072;2023-05-21T06:47:08;100593.81;;;19.24;64.39
77153;BME280;66124;51.146;17.072;2023-05-21T06:49:38;100592.81;;;19.26;64.19
77153;BME280;66124;51.146;17.072;2023-05-21T06:52:07;100594.94;;;19.30;63.94
77153;BME280;66124;51.146;17.072;2023-05-21T06:54:37;100592.31;;;19.31;63.70
77153;BME280;66124;51.146;17.072;2023-05-21T06:57:05;100589.43;;;19.34;63.64
77153;BME280;66124;51.146;17.072;2023-05-21T06:59:33;100590.60;;;19.38;63.38
77153;BME280;66124;51.146;17.072;2023-05-21T07:06:58;100583.24;;;19.62;63.41
77153;BME280;66124;51.146;17.072;2023-05-21T07:09:25;100577.58;;;19.72;62.82
77153;BME280;66124;51.146;17.072;2023-05-21T07:11:52;100579.00;;;19.79;62.64
77153;BME280;66124;51.146;17.072;2023-05-21T07:14:20;100580.06;;;19.88;62.44
77153;BME280;66124;51.146;17.072;2023-05-21T07:16:47;100576.08;;;19.95;62.31
77153;BME280;66124;51.146;17.072;2023-05-21T07:19:15;100576.48;;;20.05;62.36
77153;BME280;66124;51.146;17.072;2023-05-21T07:21:41;100577.83;;;20.19;62.03
77153;BME280;66124;51.146;17.072;2023-05-21T07:24:09;100577.42;;;20.26;61.40
77153;BME280;66124;51.146;17.072;2023-05-21T07:26:35;100576.84;;;20.33;60.86
77153;BME280;66124;51.146;17.072;2023-05-21T07:29:02;100573.81;;;20.36;60.41
77153;BME280;66124;51.146;17.072;2023-05-21T07:34:13;100572.15;;;20.37;59.88
77153;BME280;66124;51.146;17.072;2023-05-21T07:36:42;100574.63;;;20.35;59.91
77153;BME280;66124;51.146;17.072;2023-05-21T07:39:12;100570.52;;;20.38;60.06
77153;BME280;66124;51.146;17.072;2023-05-21T07:41:42;100576.77;;;20.48;60.19
77153;BME280;66124;51.146;17.072;2023-05-21T07:44:11;100573.84;;;20.58;60.09
77153;BME280;66124;51.146;17.072;2023-05-21T07:46:41;100575.20;;;20.67;59.65
77153;BME280;66124;51.146;17.072;2023-05-21T07:49:11;100576.16;;;20.72;59.54
77153;BME280;66124;51.146;17.072;2023-05-21T07:51:40;100574.48;;;20.77;59.27
77153;BME280;66124;51.146;17.072;2023-05-21T07:54:10;100580.01;;;20.84;59.40
77153;BME280;66124;51.146;17.072;2023-05-21T07:56:39;100579.35;;;20.94;59.17
77153;BME280;66124;51.146;17.072;2023-05-21T07:59:09;100577.79;;;21.02;58.58
77153;BME280;66124;51.146;17.072;2023-05-21T08:01:38;100579.54;;;21.05;58.35
77153;BME280;66124;51.146;17.072;2023-05-21T08:04:08;100580.13;;;21.11;58.28
77153;BME280;66124;51.146;17.072;2023-05-21T08:06:37;100576.45;;;21.17;58.13
77153;BME280;66124;51.146;17.072;2023-05-21T08:09:06;100573.25;;;21.24;58.00
77153;BME280;66124;51.146;17.072;2023-05-21T08:11:36;100575.54;;;21.32;58.05
77153;BME280;66124;51.146;17.072;2023-05-21T08:14:05;100568.55;;;21.39;58.11
77153;BME280;66124;51.146;17.072;2023-05-21T08:16:35;100572.28;;;21.47;58.16
77153;BME280;66124;51.146;17.072;2023-05-21T08:19:04;100568.70;;;21.57;57.77
77153;BME280;66124;51.146;17.072;2023-05-21T08:21:34;100561.19;;;21.68;57.66
77153;BME280;66124;51.146;17.072;2023-05-21T08:24:03;100555.04;;;21.79;57.42
77153;BME280;66124;51.146;17.072;2023-05-21T08:26:33;100561.21;;;21.91;57.07
77153;BME280;66124;51.146;17.072;2023-05-21T08:29:02;100557.43;;;22.00;57.07
77153;BME280;66124;51.146;17.072;2023-05-21T08:31:32;100557.92;;;22.07;57.09
77153;BME280;66124;51.146;17.072;2023-05-21T08:34:01;100554.73;;;22.13;57.07
77153;BME280;66124;51.146;17.072;2023-05-21T08:36:31;100561.06;;;22.16;56.79
77153;BME280;66124;51.146;17.072;2023-05-21T08:39:00;100558.40;;;22.18;56.74
77153;BME280;66124;51.146;17.072;2023-05-21T08:41:31;100560.27;;;22.21;56.32
77153;BME280;66124;51.146;17.072;2023-05-21T08:44:03;100560.19;;;22.22;56.34
77153;BME280;66124;51.146;17.072;2023-05-21T08:46:33;100555.46;;;22.26;56.15
77153;BME280;66124;51.146;17.072;2023-05-21T08:52:07;100557.14;;;22.39;55.66
77153;BME280;66124;51.146;17.072;2023-05-21T08:54:37;100557.91;;;22.40;55.28
77153;BME280;66124;51.146;17.072;2023-05-21T08:57:07;100555.85;;;22.44;55.01
77153;BME280;66124;51.146;17.072;2023-05-21T08:59:38;100553.98;;;22.47;55.00
77153;BME280;66124;51.146;17.072;2023-05-21T09:02:07;100557.81;;;22.53;54.87
77153;BME280;66124;51.146;17.072;2023-05-21T09:04:39;100560.04;;;22.58;54.67
77153;BME280;66124;51.146;17.072;2023-05-21T09:07:10;100558.36;;;22.64;54.31
77153;BME280;66124;51.146;17.072;2023-05-21T09:09:43;100560.52;;;22.69;53.85
77153;BME280;66124;51.146;17.072;2023-05-21T09:12:15;100561.98;;;22.74;53.73
77153;BME280;66124;51.146;17.072;2023-05-21T09:14:45;100559.24;;;22.79;53.44
77153;BME280;66124;51.146;17.072;2023-05-21T09:17:15;100562.41;;;22.84;53.28
77153;BME280;66124;51.146;17.072;2023-05-21T09:20:05;100565.44;;;22.89;52.96
77153;BME280;66124;51.146;17.072;2023-05-21T09:22:35;100562.68;;;22.93;52.99
77153;BME280;66124;51.146;17.072;2023-05-21T09:25:08;100558.85;;;23.02;52.84
77153;BME280;66124;51.146;17.072;2023-05-21T09:27:38;100554.36;;;23.09;52.64
77153;BME280;66124;51.146;17.072;2023-05-21T09:30:10;100551.46;;;23.15;51.99
77153;BME280;66124;51.146;17.072;2023-05-21T09:32:41;100553.27;;;23.18;52.15
77153;BME280;66124;51.146;17.072;2023-05-21T09:35:12;100545.92;;;23.25;52.19
77153;BME280;66124;51.146;17.072;2023-05-21T09:37:43;100545.66;;;23.35;51.90
77153;BME280;66124;51.146;17.072;2023-05-21T09:40:15;100547.36;;;23.43;51.59
77153;BME280;66124;51.146;17.072;2023-05-21T09:42:46;100549.08;;;23.50;51.07
77153;BME280;66124;51.146;17.072;2023-05-21T09:45:20;100550.70;;;23.57;50.93
77153;BME280;66124;51.146;17.072;2023-05-21T09:47:51;100547.33;;;23.66;50.39
77153;BME280;66124;51.146;17.072;2023-05-21T09:50:22;100542.06;;;23.74;50.33
77153;BME280;66124;51.146;17.072;2023-05-21T09:52:52;100529.96;;;23.82;50.18
77153;BME280;66124;51.146;17.072;2023-05-21T09:55:24;100528.76;;;23.88;49.57
77153;BME280;66124;51.146;17.072;2023-05-21T09:57:54;100528.58;;;23.92;49.05
77153;BME280;66124;51.146;17.072;2023-05-21T10:00:28;100529.41;;;23.98;49.11
77153;BME280;66124;51.146;17.072;2023-05-21T10:02:56;100531.01;;;24.06;48.78
77153;BME280;66124;51.146;17.072;2023-05-21T10:10:36;100514.27;;;24.20;47.71
77153;BME280;66124;51.146;17.072;2023-05-21T10:13:10;100509.27;;;24.19;47.23
77153;BME280;66124;51.146;17.072;2023-05-21T10:15:43;100522.14;;;24.20;47.24
77153;BME280;66124;51.146;17.072;2023-05-21T10:18:14;100520.02;;;24.24;47.33
77153;BME280;66124;51.146;17.072;2023-05-21T10:20:44;100513.30;;;24.29;47.23
77153;BME280;66124;51.146;17.072;2023-05-21T10:23:14;100507.29;;;24.36;46.74
77153;BME280;66124;51.146;17.072;2023-05-21T10:25:45;100510.05;;;24.39;46.12
77153;BME280;66124;51.146;17.072;2023-05-21T10:28:17;100507.74;;;24.41;46.57
77153;BME280;66124;51.146;17.072;2023-05-21T10:30:47;100510.79;;;24.46;45.81
77153;BME280;66124;51.146;17.072;2023-05-21T10:33:17;100512.97;;;24.51;46.01
77153;BME280;66124;51.146;17.072;2023-05-21T10:35:48;100511.81;;;24.60;45.90
77153;BME280;66124;51.146;17.072;2023-05-21T10:38:19;100507.59;;;24.72;45.51
77153;BME280;66124;51.146;17.072;2023-05-21T10:40:49;100511.27;;;24.80;44.87
77153;BME280;66124;51.146;17.072;2023-05-21T10:43:45;100510.74;;;24.88;44.38
77153;BME280;66124;51.146;17.072;2023-05-21T10:46:46;100504.41;;;25.02;43.80
77153;BME280;66124;51.146;17.072;2023-05-21T10:49:44;100496.34;;;25.16;42.87
77153;BME280;66124;51.146;17.072;2023-05-21T10:52:31;100502.12;;;25.25;42.82
77153;BME280;66124;51.146;17.072;2023-05-21T10:55:12;100498.09;;;25.35;42.77
77153;BME280;66124;51.146;17.072;2023-05-21T11:00:37;100488.05;;;25.61;42.11
77153;BME280;66124;51.146;17.072;2023-05-21T11:03:08;100484.32;;;25.72;41.85
77153;BME280;66124;51.146;17.072;2023-05-21T11:05:49;100486.29;;;25.82;41.65
77153;BME280;66124;51.146;17.072;2023-05-21T11:08:26;100486.95;;;25.99;40.69
77153;BME280;66124;51.146;17.072;2023-05-21T11:10:56;100485.34;;;26.11;40.01
77153;BME280;66124;51.146;17.072;2023-05-21T11:13:27;100486.52;;;26.17;39.19
77153;BME280;66124;51.146;17.072;2023-05-21T11:16:05;100487.74;;;26.21;39.33
77153;BME280;66124;51.146;17.072;2023-05-21T11:19:00;100488.17;;;26.36;39.31
77153;BME280;66124;51.146;17.072;2023-05-21T11:21:34;100465.96;;;26.42;38.47
77153;BME280;66124;51.146;17.072;2023-05-21T11:27:05;100485.84;;;26.71;37.86
77153;BME280;66124;51.146;17.072;2023-05-21T11:29:42;100478.16;;;26.91;37.75
77153;BME280;66124;51.146;17.072;2023-05-21T11:32:13;100479.17;;;27.12;36.78
77153;BME280;66124;51.146;17.072;2023-05-21T11:34:44;100477.28;;;27.25;36.67
77153;BME280;66124;51.146;17.072;2023-05-21T11:37:31;100479.04;;;27.29;36.15
77153;BME280;66124;51.146;17.072;2023-05-21T11:40:18;100476.48;;;27.31;35.96
77153;BME280;66124;51.146;17.072;2023-05-21T11:42:51;100469.14;;;27.50;36.02
77153;BME280;66124;51.146;17.072;2023-05-21T11:45:22;100468.60;;;27.67;36.34
77153;BME280;66124;51.146;17.072;2023-05-21T11:47:52;100464.02;;;27.85;36.05
77153;BME280;66124;51.146;17.072;2023-05-21T11:50:22;100464.14;;;28.01;36.00
77153;BME280;66124;51.146;17.072;2023-05-21T11:52:52;100460.55;;;28.22;35.77
77153;BME280;66124;51.146;17.072;2023-05-21T11:55:24;100459.77;;;28.44;35.07
77153;BME280;66124;51.146;17.072;2023-05-21T11:57:54;100462.54;;;28.63;35.01
77153;BME280;66124;51.146;17.072;2023-05-21T12:00:24;100462.16;;;28.85;35.10
77153;BME280;66124;51.146;17.072;2023-05-21T12:02:53;100456.48;;;29.01;34.12
77153;BME280;66124;51.146;17.072;2023-05-21T12:05:24;100442.24;;;29.08;34.10
77153;BME280;66124;51.146;17.072;2023-05-21T12:07:54;100445.81;;;29.21;33.71
77153;BME280;66124;51.146;17.072;2023-05-21T12:10:23;100445.09;;;29.22;33.92
77153;BME280;66124;51.146;17.072;2023-05-21T12:12:52;100451.11;;;29.26;33.82
77153;BME280;66124;51.146;17.072;2023-05-21T12:15:22;100449.24;;;29.31;33.69
77153;BME280;66124;51.146;17.072;2023-05-21T12:17:52;100450.46;;;29.42;33.25
77153;BME280;66124;51.146;17.072;2023-05-21T12:20:22;100445.48;;;29.52;32.89
77153;BME280;66124;51.146;17.072;2023-05-21T12:22:53;100443.44;;;29.66;32.89
77153;BME280;66124;51.146;17.072;2023-05-21T12:25:23;100440.88;;;29.86;32.62
77153;BME280;66124;51.146;17.072;2023-05-21T12:27:53;100441.80;;;30.08;32.02
77153;BME280;66124;51.146;17.072;2023-05-21T12:30:22;100443.31;;;30.16;31.14
77153;BME280;66124;51.146;17.072;2023-05-21T12:32:52;100442.25;;;30.07;31.61
77153;BME280;66124;51.146;17.072;2023-05-21T12:35:22;100441.32;;;30.18;31.45
77153;BME280;66124;51.146;17.072;2023-05-21T12:37:50;100440.27;;;30.29;31.04
77153;BME280;66124;51.146;17.072;2023-05-21T12:46:51;100439.11;;;30.79;30.65
77153;BME280;66124;51.146;17.072;2023-05-21T12:49:33;100438.34;;;30.90;30.21
77153;BME280;66124;51.146;17.072;2023-05-21T12:52:09;100430.04;;;31.02;29.82
77153;BME280;66124;51.146;17.072;2023-05-21T12:54:40;100433.11;;;31.17;29.65
77153;BME280;66124;51.146;17.072;2023-05-21T12:57:14;100434.20;;;31.22;29.58
77153;BME280;66124;51.146;17.072;2023-05-21T12:59:48;100437.27;;;31.23;29.67
77153;BME280;66124;51.146;17.072;2023-05-21T13:02:20;100434.64;;;31.26;29.68
77153;BME280;66124;51.146;17.072;2023-05-21T13:04:54;100435.70;;;31.40;29.62
77153;BME280;66124;51.146;17.072;2023-05-21T13:07:24;100430.55;;;31.52;29.03
77153;BME280;66124;51.146;17.072;2023-05-21T13:09:54;100426.52;;;31.43;28.90
77153;BME280;66124;51.146;17.072;2023-05-21T13:12:25;100426.59;;;31.35;28.91
77153;BME280;66124;51.146;17.072;2023-05-21T13:14:56;100431.27;;;31.36;28.78
77153;BME280;66124;51.146;17.072;2023-05-21T13:17:26;100419.77;;;31.39;28.79
77153;BME280;66124;51.146;17.072;2023-05-21T13:20:09;100425.95;;;31.47;28.91
77153;BME280;66124;51.146;17.072;2023-05-21T13:22:40;100427.35;;;31.51;28.68
77153;BME280;66124;51.146;17.072;2023-05-21T13:25:11;100422.89;;;31.63;28.92
77153;BME280;66124;51.146;17.072;2023-05-21T13:27:41;100422.06;;;31.79;28.48
77153;BME280;66124;51.146;17.072;2023-05-21T13:30:11;100425.61;;;31.82;28.30
77153;BME280;66124;51.146;17.072;2023-05-21T13:32:41;100423.68;;;31.85;28.09
77153;BME280;66124;51.146;17.072;2023-05-21T13:35:11;100422.91;;;32.04;27.91
77153;BME280;66124;51.146;17.072;2023-05-21T13:37:41;100418.25;;;31.97;27.60
77153;BME280;66124;51.146;17.072;2023-05-21T13:40:13;100421.50;;;31.79;27.84
77153;BME280;66124;51.146;17.072;2023-05-21T13:42:43;100417.94;;;31.74;27.82
77153;BME280;66124;51.146;17.072;2023-05-21T13:45:14;100414.46;;;31.75;27.17
77153;BME280;66124;51.146;17.072;2023-05-21T13:47:45;100406.66;;;31.66;26.83
77153;BME280;66124;51.146;17.072;2023-05-21T13:50:15;100406.00;;;31.52;27.40
77153;BME280;66124;51.146;17.072;2023-05-21T13:52:45;100405.98;;;31.63;27.17